LZIB/BTS METAR and TAF weather

Enter ICAO airport designator
Station Type Date Time Source
LZIB METAR 2023/02/06 00:30 UTC NOAA

LZIB 060030Z 32005KT CAVOK M05/M10 Q1038 NOSIG


Station Type Date Time Source
LZIB Decoded METAR 2023/02/06 00:30 UTC NOAA

Bratislava Ivanka, Slovakia (LZIB) 48-12N 017-12E 142M
Feb 05, 2023 - 07:30 PM EST / 2023.02.06 0030 UTC
Wind: from the NW (320 degrees) at 6 MPH (5 KT):0
Visibility: greater than 7 mile(s):0
Temperature: 23 F (-5 C)
Windchill: 15 F (-9 C):1
Dew Point: 14 F (-10 C)
Relative Humidity: 67%
Pressure (altimeter): 30.65 in. Hg (1038 hPa)
ob: LZIB 060030Z 32005KT CAVOK M05/M10 Q1038 NOSIG
cycle: 0

Station Type Date Time Source
LZIB TAF 2023/02/05 18:06 UTC NOAA

TAF LZIB 051715Z 0518/0618 34008KT CAVOK

Example: see airport list